createdAt,value
2018-05-18T00:01:47.005Z,5.20
2018-05-18T00:04:17.125Z,4.00
2018-05-18T00:06:47.039Z,4.60
2018-05-18T00:09:16.748Z,4.47
2018-05-18T00:11:46.459Z,4.10
2018-05-18T00:14:16.167Z,4.57
2018-05-18T00:16:46.697Z,5.53
2018-05-18T00:19:16.583Z,4.50
2018-05-18T00:21:47.344Z,4.33
2018-05-18T00:24:17.054Z,4.23
2018-05-18T00:26:48.382Z,4.97
2018-05-18T00:29:18.316Z,4.03
2018-05-18T00:31:48.232Z,3.57
2018-05-18T00:34:18.352Z,4.27
2018-05-18T00:36:48.262Z,5.27
2018-05-18T00:39:17.974Z,5.53
2018-05-18T00:41:49.091Z,4.50
2018-05-18T00:44:18.825Z,3.43
2018-05-18T00:46:48.945Z,4.07
2018-05-18T00:49:18.654Z,4.40
2018-05-18T00:51:50.006Z,4.07
2018-05-18T00:54:20.532Z,4.80
2018-05-18T00:56:50.444Z,3.97
2018-05-18T00:59:20.155Z,4.50
2018-05-18T01:01:50.274Z,4.90
2018-05-18T01:04:19.985Z,4.30
2018-05-18T01:06:50.519Z,4.57
2018-05-18T01:09:20.426Z,3.43
2018-05-18T01:11:50.341Z,4.10
2018-05-18T01:14:20.051Z,3.90
2018-05-18T01:16:49.760Z,4.10
2018-05-18T01:19:20.494Z,4.37
2018-05-18T01:21:50.690Z,5.20
2018-05-18T01:24:20.531Z,4.03
2018-05-18T01:26:50.925Z,4.40
2018-05-18T01:29:20.768Z,4.10
2018-05-18T01:31:51.296Z,4.67
2018-05-18T01:34:21.005Z,4.37
2018-05-18T01:36:51.942Z,3.83
2018-05-18T01:39:21.651Z,3.53
2018-05-18T01:41:51.568Z,4.60
2018-05-18T01:44:21.478Z,3.80
2018-05-18T01:46:51.600Z,3.90
2018-05-18T01:49:21.513Z,3.43
2018-05-18T01:54:51.450Z,4.03
2018-05-18T01:57:21.337Z,3.60
2018-05-18T01:59:51.284Z,5.20
2018-05-18T02:02:20.986Z,3.87
2018-05-18T02:04:50.698Z,4.97
2018-05-18T02:07:21.227Z,3.83
2018-05-18T02:09:50.932Z,4.37
2018-05-18T02:12:20.642Z,3.77
2018-05-18T02:14:50.352Z,4.00
2018-05-18T02:17:20.062Z,4.00
2018-05-18T02:19:49.771Z,3.90
2018-05-18T02:22:19.481Z,3.87
2018-05-18T02:24:50.009Z,4.90
2018-05-18T02:27:19.723Z,4.10
2018-05-18T02:29:50.433Z,3.53
2018-05-18T02:32:20.367Z,4.80
2018-05-18T02:34:50.282Z,4.43
2018-05-18T02:37:20.196Z,3.60
2018-05-18T02:39:50.111Z,4.83
2018-05-18T02:42:20.024Z,3.77
2018-05-18T02:44:49.733Z,3.93
2018-05-18T02:47:21.332Z,4.03
2018-05-18T02:49:51.212Z,4.30
2018-05-18T02:52:21.146Z,3.40
2018-05-18T02:54:51.035Z,3.63
2018-05-18T02:57:20.942Z,3.60
2018-05-18T02:59:52.344Z,3.97
2018-05-18T03:02:22.205Z,4.70
2018-05-18T03:04:52.942Z,4.90
2018-05-18T03:07:22.853Z,4.03
2018-05-18T03:09:52.567Z,3.90
2018-05-18T03:12:22.275Z,4.63
2018-05-18T03:14:52.803Z,5.57
2018-05-18T03:17:22.511Z,3.83
2018-05-18T03:19:52.403Z,5.07
2018-05-18T03:22:22.137Z,3.53
2018-05-18T03:24:52.253Z,4.07
2018-05-18T03:27:22.372Z,4.53
2018-05-18T03:29:52.289Z,4.70
2018-05-18T03:32:22.815Z,4.57
2018-05-18T03:34:52.729Z,4.87
2018-05-18T03:37:22.645Z,5.37
2018-05-18T03:39:52.558Z,5.57
2018-05-18T03:42:22.617Z,4.40
2018-05-18T03:44:52.387Z,4.40
2018-05-18T03:47:22.303Z,5.03
2018-05-18T03:49:52.420Z,6.50
2018-05-18T03:55:22.559Z,6.00
2018-05-18T03:57:52.578Z,5.67
2018-05-18T04:00:22.387Z,5.10
2018-05-18T04:05:05.018Z,5.47
2018-05-18T04:07:53.024Z,5.00
2018-05-18T04:10:22.961Z,5.23
2018-05-18T04:12:52.990Z,5.67
2018-05-18T04:15:23.102Z,5.03
2018-05-18T04:17:53.205Z,6.27
2018-05-18T04:20:23.135Z,6.40
2018-05-18T04:22:53.049Z,5.73
2018-05-18T04:25:22.964Z,5.77
2018-05-18T04:27:53.083Z,4.60
2018-05-18T04:30:23.134Z,5.23
2018-05-18T04:32:56.194Z,5.63
2018-05-18T04:35:26.103Z,4.70
2018-05-18T04:37:55.994Z,5.43
2018-05-18T04:40:26.058Z,5.83
2018-05-18T04:42:56.052Z,5.00
2018-05-18T04:45:25.974Z,5.30
2018-05-18T04:47:56.095Z,5.17
2018-05-18T04:50:26.003Z,7.23
2018-05-18T04:52:56.118Z,5.27
2018-05-18T04:55:26.035Z,5.60
2018-05-18T04:57:55.950Z,5.90
2018-05-18T05:00:25.860Z,4.70
2018-05-18T05:02:56.184Z,4.30
2018-05-18T05:05:27.537Z,5.33
2018-05-18T05:07:57.650Z,5.40
2018-05-18T05:10:30.024Z,4.70
2018-05-18T05:12:59.736Z,5.70
2018-05-18T05:15:29.649Z,5.40
2018-05-18T05:17:59.649Z,6.27
2018-05-18T05:20:29.680Z,4.97
2018-05-18T05:23:00.003Z,5.63
2018-05-18T05:25:30.923Z,5.33
2018-05-18T05:28:02.066Z,4.83
2018-05-18T05:30:32.288Z,6.00
2018-05-18T05:33:02.119Z,7.43
2018-05-18T05:35:32.035Z,5.73
2018-05-18T05:38:01.947Z,5.70
2018-05-18T05:40:32.680Z,4.83
2018-05-18T05:43:02.882Z,5.60
2018-05-18T05:45:32.922Z,5.97
2018-05-18T05:48:02.837Z,6.03
2018-05-18T05:50:39.305Z,5.70
2018-05-18T05:53:15.382Z,6.47
2018-05-18T05:55:45.478Z,6.10
2018-05-18T05:58:16.215Z,6.23
2018-05-18T06:00:46.332Z,5.97
2018-05-18T06:03:17.070Z,5.63
2018-05-18T06:05:46.982Z,6.93
2018-05-18T06:08:18.326Z,6.50
2018-05-18T06:10:55.141Z,4.63
2018-05-18T06:13:32.673Z,6.73
2018-05-18T06:16:03.226Z,6.63
2018-05-18T06:18:33.141Z,5.43
2018-05-18T06:21:03.208Z,6.10
2018-05-18T06:23:32.967Z,5.23
2018-05-18T06:26:03.475Z,5.33
2018-05-18T06:28:33.487Z,5.30
2018-05-18T06:31:03.486Z,5.30
2018-05-18T06:36:17.695Z,5.63
2018-05-18T06:38:47.791Z,6.10
2018-05-18T06:41:18.668Z,5.37
2018-05-18T06:43:49.077Z,5.87
2018-05-18T06:46:19.195Z,6.43
2018-05-18T06:48:49.107Z,6.07
2018-05-18T06:51:19.021Z,5.30
2018-05-18T06:53:49.142Z,5.37
2018-05-18T06:56:19.585Z,7.07
2018-05-18T06:58:51.323Z,5.17
2018-05-18T07:01:21.323Z,5.57
2018-05-18T07:03:51.250Z,5.57
2018-05-18T07:06:21.378Z,4.80
2018-05-18T07:08:51.492Z,4.73
2018-05-18T07:11:21.816Z,5.63
2018-05-18T07:13:52.640Z,5.37
2018-05-18T07:16:23.853Z,6.20
2018-05-18T07:18:53.813Z,5.03
2018-05-18T07:21:24.136Z,5.03
2018-05-18T07:24:02.165Z,15.87
2018-05-18T07:26:41.805Z,15.07
2018-05-18T07:29:12.311Z,13.40
2018-05-18T07:31:43.185Z,12.90
2018-05-18T07:34:13.164Z,9.17
2018-05-18T07:36:43.078Z,7.73
2018-05-18T07:39:13.277Z,9.20
2018-05-18T07:41:43.316Z,9.13
2018-05-18T07:44:13.140Z,8.93
2018-05-18T07:46:44.233Z,8.17
2018-05-18T07:49:14.287Z,8.00
2018-05-18T07:51:44.203Z,8.00
2018-05-18T07:54:14.521Z,7.80
2018-05-18T07:56:45.854Z,7.03
2018-05-18T07:59:15.979Z,7.77
2018-05-18T08:01:46.526Z,7.37
2018-05-18T08:04:17.464Z,6.53
2018-05-18T08:06:47.761Z,6.60
2018-05-18T08:09:17.912Z,6.93
2018-05-18T08:11:47.826Z,6.30
2018-05-18T08:14:17.940Z,6.80
2018-05-18T08:16:47.853Z,6.80
2018-05-18T08:19:17.768Z,5.60
2018-05-18T08:21:47.827Z,7.43
2018-05-18T08:24:17.800Z,7.10
2018-05-18T08:26:56.726Z,6.40
2018-05-18T08:29:36.361Z,7.77
2018-05-18T08:32:06.385Z,7.23
2018-05-18T08:34:36.505Z,7.57
2018-05-18T08:37:06.478Z,7.03
2018-05-18T08:39:36.549Z,6.80
2018-05-18T08:42:06.660Z,7.20
2018-05-18T08:44:36.573Z,6.70
2018-05-18T08:47:06.280Z,8.03
2018-05-18T08:49:36.200Z,6.90
2018-05-18T08:52:06.520Z,5.20
2018-05-18T08:54:37.051Z,7.43
2018-05-18T08:57:06.971Z,7.30
2018-05-18T08:59:37.002Z,7.23
2018-05-18T09:02:06.792Z,7.70
2018-05-18T09:04:38.138Z,8.70
2018-05-18T09:07:08.467Z,6.50
2018-05-18T09:09:38.557Z,8.93
2018-05-18T09:12:08.701Z,6.37
2018-05-18T09:14:39.638Z,6.80
2018-05-18T09:17:09.776Z,7.43
2018-05-18T09:19:40.017Z,8.53
2018-05-18T09:22:10.659Z,7.83
2018-05-18T09:24:40.525Z,7.63
2018-05-18T09:27:10.850Z,8.03
2018-05-18T09:29:40.919Z,8.23
2018-05-18T09:32:10.881Z,9.07
2018-05-18T09:34:41.001Z,7.50
2018-05-18T09:37:11.532Z,7.30
2018-05-18T09:39:41.833Z,8.77
2018-05-18T09:42:11.984Z,9.03
2018-05-18T09:44:42.306Z,9.27
2018-05-18T09:47:12.214Z,10.10
2018-05-18T09:49:42.245Z,7.50
2018-05-18T09:52:13.063Z,8.10
2018-05-18T09:54:43.232Z,7.57
2018-05-18T09:57:14.735Z,8.57
2018-05-18T09:59:44.649Z,8.47
2018-05-18T10:02:14.769Z,7.70
2018-05-18T10:04:50.622Z,7.27
2018-05-18T10:07:20.959Z,8.03
2018-05-18T10:09:51.123Z,8.13
2018-05-18T10:12:21.062Z,9.00
2018-05-18T10:14:51.388Z,9.50
2018-05-18T10:17:21.407Z,8.60
2018-05-18T10:19:51.540Z,8.00
2018-05-18T10:22:21.460Z,8.43
2018-05-18T10:24:51.983Z,8.60
2018-05-18T10:27:22.103Z,6.97
2018-05-18T10:29:52.635Z,8.07
2018-05-18T10:32:22.554Z,8.33
2018-05-18T10:34:53.077Z,7.90
2018-05-18T10:37:22.991Z,9.20
2018-05-18T10:39:53.518Z,8.47
2018-05-18T10:42:24.866Z,8.80
2018-05-18T10:44:54.784Z,7.80
2018-05-18T10:47:24.701Z,8.53
2018-05-18T10:49:54.804Z,8.33
2018-05-18T10:52:26.409Z,8.10
2018-05-18T10:54:56.486Z,8.30
2018-05-18T10:57:26.613Z,9.07
2018-05-18T10:59:56.714Z,9.57
2018-05-18T11:02:28.481Z,9.00
2018-05-18T11:04:58.588Z,7.80
2018-05-18T11:07:28.723Z,10.07
2018-05-18T11:09:59.453Z,7.37
2018-05-18T11:12:29.556Z,9.80
2018-05-18T11:14:59.477Z,9.53
2018-05-18T11:17:30.222Z,9.97
2018-05-18T11:20:00.169Z,10.03
2018-05-18T11:22:31.427Z,8.63
2018-05-18T11:25:01.600Z,10.70
2018-05-18T11:27:31.925Z,9.47
2018-05-18T11:30:02.459Z,9.37
2018-05-18T11:32:32.780Z,9.70
2018-05-18T11:35:03.105Z,10.53
2018-05-18T11:37:33.117Z,8.80
2018-05-18T11:40:03.080Z,9.60
2018-05-18T11:42:33.353Z,9.30
2018-05-18T11:45:03.581Z,8.50
2018-05-18T11:47:33.651Z,10.13
2018-05-18T11:50:03.952Z,8.20
2018-05-18T11:52:34.557Z,8.90
2018-05-18T11:55:04.781Z,9.80
2018-05-18T11:57:34.934Z,10.50
2018-05-18T12:00:05.217Z,8.63
2018-05-18T12:02:35.438Z,8.17
2018-05-18T12:05:05.369Z,8.43
2018-05-18T12:07:35.677Z,9.50
2018-05-18T12:10:06.542Z,9.63
2018-05-18T12:12:36.335Z,7.83
2018-05-18T12:15:06.290Z,8.40
2018-05-18T12:17:36.157Z,7.07
2018-05-18T12:20:06.813Z,7.60
2018-05-18T12:22:36.600Z,7.90
2018-05-18T12:25:10.825Z,8.00
2018-05-18T12:27:41.127Z,8.70
2018-05-18T12:30:11.356Z,8.70
2018-05-18T12:32:41.176Z,7.70
2018-05-18T12:35:11.303Z,8.23
2018-05-18T12:37:42.238Z,7.70
2018-05-18T12:40:13.178Z,7.60
2018-05-18T12:42:43.092Z,8.40
2018-05-18T12:45:13.232Z,8.70
2018-05-18T12:47:43.328Z,9.40
2018-05-18T12:50:14.086Z,8.80
2018-05-18T12:52:43.979Z,9.83
2018-05-18T12:55:14.690Z,9.77
2018-05-18T12:57:44.559Z,8.10
2018-05-18T13:00:14.930Z,9.17
2018-05-18T13:02:44.777Z,9.73
2018-05-18T13:05:15.602Z,6.80
2018-05-18T13:07:45.968Z,8.40
2018-05-18T13:10:15.864Z,7.77
2018-05-18T13:12:46.169Z,8.00
2018-05-18T13:15:16.686Z,9.10
2018-05-18T13:17:46.412Z,7.50
2018-05-18T13:20:16.270Z,8.10
2018-05-18T13:22:46.217Z,6.70
2018-05-18T13:25:16.357Z,8.37
2018-05-18T13:27:46.682Z,6.97
2018-05-18T13:30:16.597Z,7.67
2018-05-18T13:32:46.718Z,7.70
2018-05-18T13:35:17.043Z,7.00
2018-05-18T13:37:47.063Z,7.53
2018-05-18T13:40:17.265Z,9.07
2018-05-18T13:42:47.326Z,7.90
2018-05-18T13:45:18.747Z,7.20
2018-05-18T13:47:48.872Z,6.97
2018-05-18T13:50:18.998Z,8.00
2018-05-18T13:52:49.069Z,8.33
2018-05-18T13:55:19.033Z,8.27
2018-05-18T13:57:49.232Z,7.63
2018-05-18T14:00:19.303Z,7.27
2018-05-18T14:02:49.471Z,8.30
2018-05-18T14:05:19.707Z,8.83
2018-05-18T14:07:49.791Z,8.00
2018-05-18T14:10:20.971Z,7.97
2018-05-18T14:12:51.099Z,7.00
2018-05-18T14:15:21.004Z,6.50
2018-05-18T14:17:52.349Z,7.00
2018-05-18T14:20:22.645Z,8.83
2018-05-18T14:22:52.671Z,7.40
2018-05-18T14:25:22.719Z,8.60
2018-05-18T14:27:53.244Z,7.93
2018-05-18T14:30:23.523Z,7.83
2018-05-18T14:32:54.051Z,8.23
2018-05-18T14:35:24.200Z,8.03
2018-05-18T14:37:54.898Z,7.40
2018-05-18T14:40:25.136Z,8.90
2018-05-18T14:42:55.860Z,6.80
2018-05-18T14:45:26.334Z,8.17
2018-05-18T14:47:57.251Z,7.63
2018-05-18T14:50:28.010Z,7.47
2018-05-18T14:52:57.925Z,8.50
2018-05-18T14:55:28.579Z,9.67
2018-05-18T14:57:58.632Z,8.60
2018-05-18T15:00:29.307Z,8.43
2018-05-18T15:02:59.625Z,7.93
2018-05-18T15:05:29.754Z,8.70
2018-05-18T15:07:59.653Z,7.43
2018-05-18T15:10:32.325Z,8.90
2018-05-18T15:13:02.474Z,8.57
2018-05-18T15:15:33.909Z,9.07
2018-05-18T15:18:03.825Z,8.17
2018-05-18T15:20:33.737Z,7.03
2018-05-18T15:23:03.654Z,8.80
2018-05-18T15:25:33.767Z,8.67
2018-05-18T15:28:03.670Z,8.80
2018-05-18T15:30:35.246Z,8.17
2018-05-18T15:33:05.160Z,8.53
2018-05-18T15:35:35.066Z,7.43
2018-05-18T15:38:04.981Z,7.97
2018-05-18T15:40:35.318Z,8.20
2018-05-18T15:43:05.428Z,9.43
2018-05-18T15:45:35.347Z,8.50
2018-05-18T15:48:05.681Z,8.10
2018-05-18T15:50:35.781Z,7.90
2018-05-18T15:53:05.822Z,8.10
2018-05-18T15:55:35.815Z,9.27
2018-05-18T15:58:06.076Z,7.70
2018-05-18T16:00:36.030Z,11.43
2018-05-18T16:03:06.370Z,8.23
2018-05-18T16:05:36.389Z,10.13
2018-05-18T16:08:06.615Z,7.40
2018-05-18T16:10:36.742Z,8.03
2018-05-18T16:13:06.633Z,8.40
2018-05-18T16:15:36.565Z,8.87
2018-05-18T16:18:06.479Z,9.27
2018-05-18T16:20:37.006Z,8.60
2018-05-18T16:23:07.537Z,7.80
2018-05-18T16:25:37.653Z,8.40
2018-05-18T16:28:07.862Z,7.00
2018-05-18T16:30:38.119Z,6.37
2018-05-18T16:33:08.380Z,6.80
2018-05-18T16:35:38.340Z,9.70
2018-05-18T16:38:08.454Z,7.00
2018-05-18T16:40:39.394Z,7.73
2018-05-18T16:43:09.924Z,8.13
2018-05-18T16:45:39.631Z,7.20
2018-05-18T16:48:09.729Z,7.87
2018-05-18T16:50:40.485Z,6.63
2018-05-18T16:53:10.604Z,6.50
2018-05-18T16:55:40.595Z,8.17
2018-05-18T16:58:10.639Z,7.00
2018-05-18T17:00:40.562Z,7.50
2018-05-18T17:03:10.676Z,7.40
2018-05-18T17:05:40.588Z,6.70
2018-05-18T17:08:10.773Z,7.73
2018-05-18T17:10:41.030Z,7.47
2018-05-18T17:13:11.397Z,6.70
2018-05-18T17:15:42.101Z,7.60
2018-05-18T17:18:12.385Z,7.60
2018-05-18T17:20:48.966Z,7.20
2018-05-18T17:23:22.924Z,6.87
2018-05-18T17:25:53.037Z,7.10
2018-05-18T17:28:23.492Z,7.07
2018-05-18T17:30:53.859Z,7.63
2018-05-18T17:33:25.208Z,7.03
2018-05-18T17:35:56.350Z,7.47
2018-05-18T17:38:26.468Z,8.03
2018-05-18T17:40:56.594Z,7.90
2018-05-18T17:43:26.504Z,7.80
2018-05-18T17:45:57.030Z,7.20
2018-05-18T17:48:27.151Z,7.70
2018-05-18T17:50:58.243Z,7.77
2018-05-18T17:53:28.207Z,7.10
2018-05-18T17:55:59.558Z,7.33
2018-05-18T17:58:29.470Z,8.37
2018-05-18T18:00:59.795Z,7.80
2018-05-18T18:03:29.709Z,7.50
2018-05-18T18:05:59.647Z,7.83
2018-05-18T18:08:29.773Z,7.37
2018-05-18T18:10:59.620Z,7.67
2018-05-18T18:13:29.564Z,7.20
2018-05-18T18:16:01.943Z,7.30
2018-05-18T18:18:32.740Z,7.53
2018-05-18T18:21:03.822Z,7.30
2018-05-18T18:23:35.167Z,8.57
2018-05-18T18:26:05.285Z,7.90
2018-05-18T18:28:36.524Z,8.87
2018-05-18T18:31:06.957Z,6.20
2018-05-18T18:33:38.932Z,6.07
2018-05-18T18:36:09.271Z,6.97
2018-05-18T18:38:39.978Z,6.40
2018-05-18T18:41:10.102Z,6.43
2018-05-18T18:43:48.221Z,7.03
2018-05-18T18:46:24.649Z,6.57
2018-05-18T18:48:57.110Z,8.23
2018-05-18T18:51:27.571Z,7.60
2018-05-18T18:53:57.485Z,9.00
2018-05-18T18:56:28.425Z,6.73
2018-05-18T18:58:58.482Z,7.57
2018-05-18T19:01:28.662Z,7.93
2018-05-18T19:03:59.331Z,6.50
2018-05-18T19:06:29.379Z,6.93
2018-05-18T19:09:00.711Z,6.60
2018-05-18T19:11:31.441Z,6.97
2018-05-18T19:14:01.574Z,7.07
2018-05-18T19:16:31.794Z,6.50
2018-05-18T19:19:01.970Z,7.40
2018-05-18T19:21:32.006Z,6.37
2018-05-18T19:24:01.963Z,7.53
2018-05-18T19:26:32.122Z,6.83
2018-05-18T19:29:02.431Z,7.00
2018-05-18T19:31:36.791Z,7.67
2018-05-18T19:34:07.583Z,6.60
2018-05-18T19:36:38.154Z,7.40
2018-05-18T19:39:08.234Z,7.10
2018-05-18T19:41:38.275Z,7.17
2018-05-18T19:44:08.675Z,6.20
2018-05-18T19:46:38.789Z,7.53
2018-05-18T19:49:08.719Z,6.57
2018-05-18T19:51:38.823Z,5.90
2018-05-18T19:54:09.368Z,6.07
2018-05-18T19:56:39.477Z,6.47
2018-05-18T19:59:09.566Z,7.90
2018-05-18T20:01:41.973Z,6.70
2018-05-18T20:04:11.885Z,5.60
2018-05-18T20:06:42.620Z,7.00
2018-05-18T20:09:12.933Z,5.90
2018-05-18T20:11:43.024Z,6.47
2018-05-18T20:14:12.981Z,5.47
2018-05-18T20:16:44.296Z,6.87
2018-05-18T20:19:14.651Z,8.10
2018-05-18T20:21:44.570Z,6.37
2018-05-18T20:24:14.674Z,6.43
2018-05-18T20:26:44.942Z,6.30
2018-05-18T20:29:14.913Z,7.43
2018-05-18T20:31:45.250Z,5.90
2018-05-18T20:34:15.770Z,7.90
2018-05-18T20:36:45.900Z,6.47
2018-05-18T20:39:15.799Z,6.80
2018-05-18T20:41:45.699Z,6.93
2018-05-18T20:44:16.965Z,6.97
2018-05-18T20:46:48.001Z,7.57
2018-05-18T20:49:18.801Z,7.07
2018-05-18T20:51:48.883Z,6.40
2018-05-18T20:54:19.048Z,7.07
2018-05-18T20:56:50.219Z,8.20
2018-05-18T20:59:20.234Z,6.20
2018-05-18T21:01:50.764Z,7.77
2018-05-18T21:04:21.710Z,7.13
2018-05-18T21:06:53.277Z,8.17
2018-05-18T21:09:23.899Z,6.77
2018-05-18T21:11:54.063Z,7.67
2018-05-18T21:14:24.642Z,6.60
2018-05-18T21:16:54.754Z,9.00
2018-05-18T21:19:25.685Z,8.00
2018-05-18T21:22:17.016Z,6.90
2018-05-18T21:24:50.020Z,7.73
2018-05-18T21:27:20.946Z,6.43
2018-05-18T21:29:52.756Z,9.50
2018-05-18T21:32:25.028Z,8.80
2018-05-18T21:35:04.875Z,7.93
2018-05-18T21:37:34.832Z,7.83
2018-05-18T21:40:05.043Z,7.30
2018-05-18T21:42:35.272Z,8.93
2018-05-18T21:45:05.389Z,7.30
2018-05-18T21:47:35.715Z,8.27
2018-05-18T21:50:05.831Z,9.40
2018-05-18T21:52:35.750Z,6.80
2018-05-18T21:55:06.073Z,8.53
2018-05-18T21:57:36.268Z,7.10
2018-05-18T22:00:06.596Z,7.90
2018-05-18T22:02:36.842Z,9.03
2018-05-18T22:05:06.781Z,7.63
2018-05-18T22:07:37.033Z,8.53
2018-05-18T22:10:07.813Z,8.03
2018-05-18T22:12:37.999Z,9.00
2018-05-18T22:15:08.268Z,6.23
2018-05-18T22:17:38.524Z,7.07
2018-05-18T22:20:09.309Z,8.47
2018-05-18T22:22:39.958Z,7.20
2018-05-18T22:25:11.185Z,7.83
2018-05-18T22:27:41.103Z,8.10
2018-05-18T22:30:11.234Z,6.60
2018-05-18T22:32:41.746Z,6.47
2018-05-18T22:35:12.818Z,7.13
2018-05-18T22:37:42.605Z,7.60
2018-05-18T22:40:12.615Z,7.00
2018-05-18T22:42:42.629Z,8.83
2018-05-18T22:45:13.375Z,7.13
2018-05-18T22:47:43.687Z,6.87
2018-05-18T22:50:14.417Z,5.73
2018-05-18T22:52:44.334Z,6.20
2018-05-18T22:55:14.044Z,6.80
2018-05-18T22:57:43.935Z,6.80
2018-05-18T23:00:15.123Z,6.70
2018-05-18T23:02:45.094Z,6.87
2018-05-18T23:05:14.934Z,7.50
2018-05-18T23:07:45.506Z,7.20
2018-05-18T23:10:15.376Z,7.20
2018-05-18T23:12:45.314Z,8.40
2018-05-18T23:15:15.525Z,8.43
2018-05-18T23:17:46.755Z,7.60
2018-05-18T23:20:17.078Z,7.57
2018-05-18T23:22:49.657Z,6.57
2018-05-18T23:25:19.621Z,7.67
2018-05-18T23:27:49.675Z,7.90
2018-05-18T23:30:20.013Z,7.50
2018-05-18T23:32:49.934Z,8.70
2018-05-18T23:35:20.051Z,8.70
2018-05-18T23:37:50.395Z,8.13
2018-05-18T23:40:20.294Z,7.13
2018-05-18T23:42:50.403Z,7.70
2018-05-18T23:45:20.341Z,8.40
2018-05-18T23:47:50.437Z,7.00
2018-05-18T23:50:20.342Z,8.70
2018-05-18T23:52:50.265Z,6.97
2018-05-18T23:55:20.179Z,8.47
2018-05-18T23:57:50.094Z,8.20
